sensor_id;sensor_type;location;lat;lon;timestamp;P1;durP1;ratioP1;P2;durP2;ratioP2
24761;SDS011;12865;51.934;10.330;2022-08-25T00:01:15;8.38;;;6.68;;
24761;SDS011;12865;51.934;10.330;2022-08-25T00:04:07;6.63;;;5.93;;
24761;SDS011;12865;51.934;10.330;2022-08-25T00:06:55;5.93;;;5.32;;
24761;SDS011;12865;51.934;10.330;2022-08-25T00:09:41;9.07;;;5.53;;
24761;SDS011;12865;51.934;10.330;2022-08-25T00:12:27;7.72;;;5.80;;
24761;SDS011;12865;51.934;10.330;2022-08-25T00:15:12;9.00;;;5.75;;
24761;SDS011;12865;51.934;10.330;2022-08-25T00:17:58;8.13;;;5.65;;
24761;SDS011;12865;51.934;10.330;2022-08-25T00:20:45;8.18;;;5.93;;
24761;SDS011;12865;51.934;10.330;2022-08-25T00:23:32;8.35;;;5.60;;
24761;SDS011;12865;51.934;10.330;2022-08-25T00:26:18;6.03;;;5.43;;
24761;SDS011;12865;51.934;10.330;2022-08-25T00:29:05;7.57;;;5.60;;
24761;SDS011;12865;51.934;10.330;2022-08-25T00:31:51;9.73;;;5.80;;
24761;SDS011;12865;51.934;10.330;2022-08-25T00:34:37;6.38;;;5.57;;
24761;SDS011;12865;51.934;10.330;2022-08-25T00:37:24;7.90;;;6.07;;
24761;SDS011;12865;51.934;10.330;2022-08-25T00:40:10;6.53;;;5.30;;
24761;SDS011;12865;51.934;10.330;2022-08-25T00:42:56;5.95;;;5.25;;
24761;SDS011;12865;51.934;10.330;2022-08-25T00:45:42;7.00;;;5.57;;
24761;SDS011;12865;51.934;10.330;2022-08-25T00:48:28;7.80;;;6.00;;
24761;SDS011;12865;51.934;10.330;2022-08-25T00:51:16;6.88;;;5.50;;
24761;SDS011;12865;51.934;10.330;2022-08-25T00:54:09;5.88;;;5.30;;
24761;SDS011;12865;51.934;10.330;2022-08-25T00:57:00;7.40;;;5.75;;
24761;SDS011;12865;51.934;10.330;2022-08-25T00:59:47;6.85;;;6.15;;
24761;SDS011;12865;51.934;10.330;2022-08-25T01:02:34;8.05;;;6.22;;
24761;SDS011;12865;51.934;10.330;2022-08-25T01:05:19;9.43;;;5.82;;
24761;SDS011;12865;51.934;10.330;2022-08-25T01:08:06;9.25;;;5.65;;
24761;SDS011;12865;51.934;10.330;2022-08-25T01:10:53;7.75;;;5.63;;
24761;SDS011;12865;51.934;10.330;2022-08-25T01:13:43;9.85;;;8.50;;
24761;SDS011;12865;51.934;10.330;2022-08-25T01:16:35;13.57;;;10.27;;
24761;SDS011;12865;51.934;10.330;2022-08-25T01:19:21;9.13;;;8.02;;
24761;SDS011;12865;51.934;10.330;2022-08-25T01:22:07;11.43;;;8.73;;
24761;SDS011;12865;51.934;10.330;2022-08-25T01:24:58;11.07;;;8.85;;
24761;SDS011;12865;51.934;10.330;2022-08-25T01:27:48;11.25;;;7.18;;
24761;SDS011;12865;51.934;10.330;2022-08-25T01:30:34;8.98;;;6.78;;
24761;SDS011;12865;51.934;10.330;2022-08-25T01:33:21;9.32;;;6.97;;
24761;SDS011;12865;51.934;10.330;2022-08-25T01:36:06;7.03;;;6.30;;
24761;SDS011;12865;51.934;10.330;2022-08-25T01:38:52;10.27;;;6.10;;
24761;SDS011;12865;51.934;10.330;2022-08-25T01:44:30;9.35;;;5.72;;
24761;SDS011;12865;51.934;10.330;2022-08-25T01:47:17;8.48;;;6.28;;
24761;SDS011;12865;51.934;10.330;2022-08-25T01:50:03;7.20;;;6.50;;
24761;SDS011;12865;51.934;10.330;2022-08-25T01:52:54;9.75;;;6.35;;
24761;SDS011;12865;51.934;10.330;2022-08-25T01:55:40;8.73;;;6.43;;
24761;SDS011;12865;51.934;10.330;2022-08-25T01:58:47;9.07;;;6.72;;
24761;SDS011;12865;51.934;10.330;2022-08-25T02:01:34;7.43;;;6.32;;
24761;SDS011;12865;51.934;10.330;2022-08-25T02:04:20;8.18;;;6.57;;
24761;SDS011;12865;51.934;10.330;2022-08-25T02:07:06;7.75;;;6.57;;
24761;SDS011;12865;51.934;10.330;2022-08-25T02:09:53;7.40;;;6.28;;
24761;SDS011;12865;51.934;10.330;2022-08-25T02:12:38;9.77;;;6.75;;
24761;SDS011;12865;51.934;10.330;2022-08-25T02:15:24;9.32;;;6.55;;
24761;SDS011;12865;51.934;10.330;2022-08-25T02:18:10;8.32;;;7.00;;
24761;SDS011;12865;51.934;10.330;2022-08-25T02:20:56;7.53;;;6.50;;
24761;SDS011;12865;51.934;10.330;2022-08-25T02:23:42;8.68;;;6.75;;
24761;SDS011;12865;51.934;10.330;2022-08-25T02:26:28;10.73;;;7.03;;
24761;SDS011;12865;51.934;10.330;2022-08-25T02:29:15;7.72;;;6.90;;
24761;SDS011;12865;51.934;10.330;2022-08-25T02:32:01;8.52;;;7.10;;
24761;SDS011;12865;51.934;10.330;2022-08-25T02:34:47;9.23;;;7.70;;
24761;SDS011;12865;51.934;10.330;2022-08-25T02:37:34;8.98;;;7.18;;
24761;SDS011;12865;51.934;10.330;2022-08-25T02:42:49;7.90;;;7.20;;
24761;SDS011;12865;51.934;10.330;2022-08-25T02:45:35;9.32;;;7.00;;
24761;SDS011;12865;51.934;10.330;2022-08-25T02:48:21;8.38;;;7.57;;
24761;SDS011;12865;51.934;10.330;2022-08-25T02:51:08;6.97;;;6.30;;
24761;SDS011;12865;51.934;10.330;2022-08-25T02:53:55;8.30;;;7.40;;
24761;SDS011;12865;51.934;10.330;2022-08-25T02:56:41;10.20;;;7.22;;
24761;SDS011;12865;51.934;10.330;2022-08-25T02:59:28;11.02;;;7.78;;
24761;SDS011;12865;51.934;10.330;2022-08-25T03:02:14;9.90;;;7.78;;
24761;SDS011;12865;51.934;10.330;2022-08-25T03:05:00;8.55;;;7.70;;
24761;SDS011;12865;51.934;10.330;2022-08-25T03:07:46;8.27;;;7.38;;
24761;SDS011;12865;51.934;10.330;2022-08-25T03:10:32;11.02;;;8.32;;
24761;SDS011;12865;51.934;10.330;2022-08-25T03:13:18;10.85;;;8.38;;
24761;SDS011;12865;51.934;10.330;2022-08-25T03:16:04;9.60;;;7.53;;
24761;SDS011;12865;51.934;10.330;2022-08-25T03:18:52;9.38;;;7.90;;
24761;SDS011;12865;51.934;10.330;2022-08-25T03:21:37;9.27;;;7.75;;
24761;SDS011;12865;51.934;10.330;2022-08-25T03:24:24;8.85;;;7.72;;
24761;SDS011;12865;51.934;10.330;2022-08-25T03:27:10;9.77;;;8.52;;
24761;SDS011;12865;51.934;10.330;2022-08-25T03:29:57;10.18;;;8.02;;
24761;SDS011;12865;51.934;10.330;2022-08-25T03:32:43;9.82;;;8.57;;
24761;SDS011;12865;51.934;10.330;2022-08-25T03:35:29;9.32;;;8.30;;
24761;SDS011;12865;51.934;10.330;2022-08-25T03:38:14;11.57;;;7.72;;
24761;SDS011;12865;51.934;10.330;2022-08-25T03:41:01;9.82;;;8.88;;
24761;SDS011;12865;51.934;10.330;2022-08-25T03:43:47;10.68;;;7.82;;
24761;SDS011;12865;51.934;10.330;2022-08-25T03:46:36;11.23;;;8.38;;
24761;SDS011;12865;51.934;10.330;2022-08-25T03:49:24;10.13;;;8.38;;
24761;SDS011;12865;51.934;10.330;2022-08-25T03:52:10;9.38;;;8.00;;
24761;SDS011;12865;51.934;10.330;2022-08-25T03:54:55;9.50;;;8.55;;
24761;SDS011;12865;51.934;10.330;2022-08-25T03:57:41;9.85;;;7.75;;
24761;SDS011;12865;51.934;10.330;2022-08-25T04:00:27;11.02;;;8.50;;
24761;SDS011;12865;51.934;10.330;2022-08-25T04:03:13;12.65;;;9.27;;
24761;SDS011;12865;51.934;10.330;2022-08-25T04:06:02;14.30;;;12.43;;
24761;SDS011;12865;51.934;10.330;2022-08-25T04:08:49;16.90;;;13.50;;
24761;SDS011;12865;51.934;10.330;2022-08-25T04:11:37;15.00;;;11.93;;
24761;SDS011;12865;51.934;10.330;2022-08-25T04:14:23;13.52;;;11.18;;
24761;SDS011;12865;51.934;10.330;2022-08-25T04:17:08;15.75;;;9.90;;
24761;SDS011;12865;51.934;10.330;2022-08-25T04:19:54;12.98;;;10.13;;
24761;SDS011;12865;51.934;10.330;2022-08-25T04:22:41;12.20;;;10.68;;
24761;SDS011;12865;51.934;10.330;2022-08-25T04:25:27;11.57;;;10.38;;
24761;SDS011;12865;51.934;10.330;2022-08-25T04:28:13;13.73;;;10.75;;
24761;SDS011;12865;51.934;10.330;2022-08-25T04:30:58;14.10;;;10.70;;
24761;SDS011;12865;51.934;10.330;2022-08-25T04:33:44;15.02;;;10.10;;
24761;SDS011;12865;51.934;10.330;2022-08-25T04:36:32;12.02;;;10.07;;
24761;SDS011;12865;51.934;10.330;2022-08-25T04:39:18;12.95;;;10.68;;
24761;SDS011;12865;51.934;10.330;2022-08-25T04:42:05;11.80;;;10.30;;
24761;SDS011;12865;51.934;10.330;2022-08-25T04:44:51;14.25;;;10.40;;
24761;SDS011;12865;51.934;10.330;2022-08-25T04:47:37;12.73;;;9.95;;
24761;SDS011;12865;51.934;10.330;2022-08-25T04:50:23;13.20;;;9.98;;
24761;SDS011;12865;51.934;10.330;2022-08-25T04:53:10;14.63;;;9.77;;
24761;SDS011;12865;51.934;10.330;2022-08-25T04:55:56;12.50;;;9.73;;
24761;SDS011;12865;51.934;10.330;2022-08-25T04:58:41;14.93;;;9.98;;
24761;SDS011;12865;51.934;10.330;2022-08-25T05:01:27;16.98;;;10.82;;
24761;SDS011;12865;51.934;10.330;2022-08-25T05:04:14;11.82;;;9.85;;
24761;SDS011;12865;51.934;10.330;2022-08-25T05:07:01;15.75;;;10.00;;
24761;SDS011;12865;51.934;10.330;2022-08-25T05:09:47;14.80;;;10.57;;
24761;SDS011;12865;51.934;10.330;2022-08-25T05:12:33;17.58;;;9.68;;
24761;SDS011;12865;51.934;10.330;2022-08-25T05:15:19;12.75;;;9.85;;
24761;SDS011;12865;51.934;10.330;2022-08-25T05:18:24;23.50;;;10.02;;
24761;SDS011;12865;51.934;10.330;2022-08-25T05:21:12;15.20;;;10.77;;
24761;SDS011;12865;51.934;10.330;2022-08-25T05:24:00;25.00;;;11.32;;
24761;SDS011;12865;51.934;10.330;2022-08-25T05:26:46;16.20;;;10.80;;
24761;SDS011;12865;51.934;10.330;2022-08-25T05:29:33;22.02;;;12.35;;
24761;SDS011;12865;51.934;10.330;2022-08-25T05:32:19;22.02;;;11.65;;
24761;SDS011;12865;51.934;10.330;2022-08-25T05:35:05;22.50;;;11.75;;
24761;SDS011;12865;51.934;10.330;2022-08-25T05:37:52;22.67;;;11.75;;
24761;SDS011;12865;51.934;10.330;2022-08-25T05:40:38;20.27;;;10.63;;
24761;SDS011;12865;51.934;10.330;2022-08-25T05:43:24;16.13;;;11.65;;
24761;SDS011;12865;51.934;10.330;2022-08-25T05:46:10;15.45;;;12.15;;
24761;SDS011;12865;51.934;10.330;2022-08-25T05:48:56;16.30;;;11.25;;
24761;SDS011;12865;51.934;10.330;2022-08-25T05:51:42;12.80;;;11.40;;
24761;SDS011;12865;51.934;10.330;2022-08-25T05:54:28;16.63;;;12.85;;
24761;SDS011;12865;51.934;10.330;2022-08-25T05:57:13;14.23;;;12.27;;
24761;SDS011;12865;51.934;10.330;2022-08-25T05:59:59;14.35;;;12.18;;
24761;SDS011;12865;51.934;10.330;2022-08-25T06:02:46;19.42;;;14.10;;
24761;SDS011;12865;51.934;10.330;2022-08-25T06:05:33;16.10;;;14.10;;
24761;SDS011;12865;51.934;10.330;2022-08-25T06:08:19;14.60;;;13.30;;
24761;SDS011;12865;51.934;10.330;2022-08-25T06:11:05;14.07;;;12.45;;
24761;SDS011;12865;51.934;10.330;2022-08-25T06:13:51;14.07;;;12.48;;
24761;SDS011;12865;51.934;10.330;2022-08-25T06:16:37;15.20;;;13.25;;
24761;SDS011;12865;51.934;10.330;2022-08-25T06:19:24;16.33;;;14.68;;
24761;SDS011;12865;51.934;10.330;2022-08-25T06:22:10;14.63;;;13.25;;
24761;SDS011;12865;51.934;10.330;2022-08-25T06:24:56;17.63;;;13.05;;
24761;SDS011;12865;51.934;10.330;2022-08-25T06:27:42;16.42;;;14.00;;
24761;SDS011;12865;51.934;10.330;2022-08-25T06:30:28;16.42;;;13.95;;
24761;SDS011;12865;51.934;10.330;2022-08-25T06:33:13;16.67;;;13.68;;
24761;SDS011;12865;51.934;10.330;2022-08-25T06:35:59;15.13;;;13.52;;
24761;SDS011;12865;51.934;10.330;2022-08-25T06:38:46;20.77;;;13.40;;
24761;SDS011;12865;51.934;10.330;2022-08-25T06:41:32;19.10;;;12.98;;
24761;SDS011;12865;51.934;10.330;2022-08-25T06:44:18;16.02;;;12.23;;
24761;SDS011;12865;51.934;10.330;2022-08-25T06:47:04;17.92;;;12.52;;
24761;SDS011;12865;51.934;10.330;2022-08-25T06:49:50;14.82;;;11.65;;
24761;SDS011;12865;51.934;10.330;2022-08-25T06:52:35;13.50;;;11.68;;
24761;SDS011;12865;51.934;10.330;2022-08-25T06:55:21;16.20;;;12.95;;
24761;SDS011;12865;51.934;10.330;2022-08-25T06:58:07;14.35;;;11.85;;
24761;SDS011;12865;51.934;10.330;2022-08-25T07:00:54;14.55;;;11.38;;
24761;SDS011;12865;51.934;10.330;2022-08-25T07:03:40;17.23;;;11.60;;
24761;SDS011;12865;51.934;10.330;2022-08-25T07:06:26;13.23;;;10.68;;
24761;SDS011;12865;51.934;10.330;2022-08-25T07:09:13;18.08;;;12.05;;
24761;SDS011;12865;51.934;10.330;2022-08-25T07:11:59;14.02;;;11.68;;
24761;SDS011;12865;51.934;10.330;2022-08-25T07:14:46;15.52;;;11.30;;
24761;SDS011;12865;51.934;10.330;2022-08-25T07:17:32;16.30;;;11.45;;
24761;SDS011;12865;51.934;10.330;2022-08-25T07:20:21;14.90;;;11.88;;
24761;SDS011;12865;51.934;10.330;2022-08-25T07:23:07;15.68;;;11.43;;
24761;SDS011;12865;51.934;10.330;2022-08-25T07:25:53;13.07;;;10.90;;
24761;SDS011;12865;51.934;10.330;2022-08-25T07:28:39;20.73;;;12.23;;
24761;SDS011;12865;51.934;10.330;2022-08-25T07:31:26;17.05;;;11.88;;
24761;SDS011;12865;51.934;10.330;2022-08-25T07:34:12;12.25;;;11.02;;
24761;SDS011;12865;51.934;10.330;2022-08-25T07:37:17;18.27;;;12.00;;
24761;SDS011;12865;51.934;10.330;2022-08-25T07:40:04;14.20;;;10.73;;
24761;SDS011;12865;51.934;10.330;2022-08-25T07:42:51;13.80;;;10.52;;
24761;SDS011;12865;51.934;10.330;2022-08-25T07:45:38;16.60;;;12.57;;
24761;SDS011;12865;51.934;10.330;2022-08-25T07:48:24;14.73;;;11.23;;
24761;SDS011;12865;51.934;10.330;2022-08-25T07:51:11;20.08;;;12.50;;
24761;SDS011;12865;51.934;10.330;2022-08-25T07:54:01;14.70;;;11.15;;
24761;SDS011;12865;51.934;10.330;2022-08-25T07:56:49;17.98;;;12.60;;
24761;SDS011;12865;51.934;10.330;2022-08-25T07:59:40;18.08;;;13.10;;
24761;SDS011;12865;51.934;10.330;2022-08-25T08:02:27;15.85;;;13.43;;
24761;SDS011;12865;51.934;10.330;2022-08-25T08:05:13;14.20;;;12.20;;
24761;SDS011;12865;51.934;10.330;2022-08-25T08:07:59;17.23;;;13.25;;
24761;SDS011;12865;51.934;10.330;2022-08-25T08:10:46;17.83;;;13.85;;
24761;SDS011;12865;51.934;10.330;2022-08-25T08:13:32;18.15;;;12.93;;
24761;SDS011;12865;51.934;10.330;2022-08-25T08:16:18;18.20;;;14.75;;
24761;SDS011;12865;51.934;10.330;2022-08-25T08:19:05;17.90;;;13.75;;
24761;SDS011;12865;51.934;10.330;2022-08-25T08:21:51;21.67;;;13.43;;
24761;SDS011;12865;51.934;10.330;2022-08-25T08:24:36;20.20;;;12.88;;
24761;SDS011;12865;51.934;10.330;2022-08-25T08:27:23;16.88;;;12.75;;
24761;SDS011;12865;51.934;10.330;2022-08-25T08:30:09;15.93;;;12.65;;
24761;SDS011;12865;51.934;10.330;2022-08-25T08:32:55;19.23;;;13.57;;
24761;SDS011;12865;51.934;10.330;2022-08-25T08:35:41;16.98;;;12.52;;
24761;SDS011;12865;51.934;10.330;2022-08-25T08:38:27;16.17;;;12.20;;
24761;SDS011;12865;51.934;10.330;2022-08-25T08:45:19;18.83;;;12.02;;
24761;SDS011;12865;51.934;10.330;2022-08-25T08:59:58;14.20;;;10.35;;
24761;SDS011;12865;51.934;10.330;2022-08-25T09:02:49;12.85;;;9.95;;
24761;SDS011;12865;51.934;10.330;2022-08-25T09:05:48;12.13;;;9.30;;
24761;SDS011;12865;51.934;10.330;2022-08-25T09:08:37;17.20;;;9.90;;
24761;SDS011;12865;51.934;10.330;2022-08-25T09:23:31;13.57;;;8.95;;
24761;SDS011;12865;51.934;10.330;2022-08-25T09:26:20;13.48;;;8.48;;
24761;SDS011;12865;51.934;10.330;2022-08-25T09:29:14;14.57;;;9.32;;
24761;SDS011;12865;51.934;10.330;2022-08-25T09:32:05;15.63;;;9.05;;
24761;SDS011;12865;51.934;10.330;2022-08-25T09:34:52;13.38;;;8.07;;
24761;SDS011;12865;51.934;10.330;2022-08-25T09:37:39;15.55;;;9.20;;
24761;SDS011;12865;51.934;10.330;2022-08-25T09:40:25;12.05;;;8.55;;
24761;SDS011;12865;51.934;10.330;2022-08-25T09:46:27;19.05;;;9.18;;
24761;SDS011;12865;51.934;10.330;2022-08-25T09:49:13;13.50;;;8.32;;
24761;SDS011;12865;51.934;10.330;2022-08-25T09:57:57;15.38;;;9.00;;
24761;SDS011;12865;51.934;10.330;2022-08-25T10:00:43;14.45;;;8.80;;
24761;SDS011;12865;51.934;10.330;2022-08-25T10:03:31;12.23;;;8.15;;
24761;SDS011;12865;51.934;10.330;2022-08-25T10:06:17;13.27;;;8.32;;
24761;SDS011;12865;51.934;10.330;2022-08-25T10:09:04;12.75;;;8.27;;
24761;SDS011;12865;51.934;10.330;2022-08-25T10:11:51;12.48;;;8.07;;
24761;SDS011;12865;51.934;10.330;2022-08-25T10:14:39;12.40;;;8.27;;
24761;SDS011;12865;51.934;10.330;2022-08-25T10:17:26;18.33;;;7.90;;
24761;SDS011;12865;51.934;10.330;2022-08-25T10:23:11;8.85;;;7.95;;
24761;SDS011;12865;51.934;10.330;2022-08-25T10:26:00;13.95;;;8.20;;
24761;SDS011;12865;51.934;10.330;2022-08-25T10:32:00;13.90;;;8.32;;
24761;SDS011;12865;51.934;10.330;2022-08-25T10:34:49;10.63;;;8.45;;
24761;SDS011;12865;51.934;10.330;2022-08-25T10:37:57;10.75;;;7.97;;
24761;SDS011;12865;51.934;10.330;2022-08-25T10:40:53;16.15;;;8.32;;
24761;SDS011;12865;51.934;10.330;2022-08-25T10:56:28;11.90;;;7.80;;
24761;SDS011;12865;51.934;10.330;2022-08-25T10:59:29;13.43;;;8.80;;
24761;SDS011;12865;51.934;10.330;2022-08-25T11:05:37;13.00;;;8.57;;
24761;SDS011;12865;51.934;10.330;2022-08-25T11:08:44;12.85;;;8.13;;
24761;SDS011;12865;51.934;10.330;2022-08-25T11:12:09;14.38;;;8.52;;
24761;SDS011;12865;51.934;10.330;2022-08-25T11:15:11;12.50;;;9.02;;
24761;SDS011;12865;51.934;10.330;2022-08-25T11:18:12;10.10;;;7.95;;
24761;SDS011;12865;51.934;10.330;2022-08-25T11:21:08;14.55;;;8.48;;
24761;SDS011;12865;51.934;10.330;2022-08-25T11:24:01;8.18;;;7.30;;
24761;SDS011;12865;51.934;10.330;2022-08-25T11:26:55;11.65;;;8.10;;
24761;SDS011;12865;51.934;10.330;2022-08-25T11:29:42;11.25;;;8.15;;
24761;SDS011;12865;51.934;10.330;2022-08-25T11:32:38;11.65;;;8.25;;
24761;SDS011;12865;51.934;10.330;2022-08-25T11:35:26;14.20;;;8.32;;
24761;SDS011;12865;51.934;10.330;2022-08-25T11:47:33;14.50;;;7.72;;
24761;SDS011;12865;51.934;10.330;2022-08-25T11:50:30;11.88;;;8.02;;
24761;SDS011;12865;51.934;10.330;2022-08-25T11:53:23;13.73;;;8.55;;
24761;SDS011;12865;51.934;10.330;2022-08-25T11:56:32;13.77;;;8.48;;
24761;SDS011;12865;51.934;10.330;2022-08-25T12:08:45;13.73;;;8.30;;
24761;SDS011;12865;51.934;10.330;2022-08-25T12:14:37;14.45;;;8.30;;
24761;SDS011;12865;51.934;10.330;2022-08-25T12:17:35;12.88;;;7.95;;
24761;SDS011;12865;51.934;10.330;2022-08-25T12:20:49;12.23;;;9.05;;
24761;SDS011;12865;51.934;10.330;2022-08-25T12:23:45;15.85;;;8.23;;
24761;SDS011;12865;51.934;10.330;2022-08-25T12:26:56;12.82;;;7.95;;
24761;SDS011;12865;51.934;10.330;2022-08-25T12:35:57;13.38;;;7.45;;
24761;SDS011;12865;51.934;10.330;2022-08-25T12:38:47;16.20;;;7.65;;
24761;SDS011;12865;51.934;10.330;2022-08-25T12:41:33;11.45;;;7.68;;
24761;SDS011;12865;51.934;10.330;2022-08-25T12:44:42;10.30;;;7.43;;
24761;SDS011;12865;51.934;10.330;2022-08-25T12:47:31;13.93;;;7.30;;
24761;SDS011;12865;51.934;10.330;2022-08-25T12:59:16;9.80;;;7.95;;
24761;SDS011;12865;51.934;10.330;2022-08-25T13:14:03;13.45;;;7.88;;
24761;SDS011;12865;51.934;10.330;2022-08-25T13:16:58;13.65;;;7.85;;
24761;SDS011;12865;51.934;10.330;2022-08-25T13:19:44;13.10;;;7.45;;
24761;SDS011;12865;51.934;10.330;2022-08-25T13:22:29;12.20;;;7.85;;
24761;SDS011;12865;51.934;10.330;2022-08-25T13:25:26;14.15;;;7.93;;
24761;SDS011;12865;51.934;10.330;2022-08-25T13:28:36;15.38;;;8.27;;
24761;SDS011;12865;51.934;10.330;2022-08-25T13:31:22;11.98;;;7.53;;
24761;SDS011;12865;51.934;10.330;2022-08-25T13:34:16;11.18;;;7.88;;
24761;SDS011;12865;51.934;10.330;2022-08-25T13:37:14;11.20;;;7.50;;
24761;SDS011;12865;51.934;10.330;2022-08-25T13:43:05;12.68;;;7.32;;
24761;SDS011;12865;51.934;10.330;2022-08-25T13:45:55;12.40;;;7.47;;
24761;SDS011;12865;51.934;10.330;2022-08-25T13:48:41;14.93;;;7.05;;
24761;SDS011;12865;51.934;10.330;2022-08-25T13:51:27;12.75;;;7.75;;
24761;SDS011;12865;51.934;10.330;2022-08-25T13:54:23;11.85;;;7.68;;
24761;SDS011;12865;51.934;10.330;2022-08-25T13:57:15;16.05;;;7.80;;
24761;SDS011;12865;51.934;10.330;2022-08-25T14:00:07;14.10;;;7.88;;
24761;SDS011;12865;51.934;10.330;2022-08-25T14:05:42;11.73;;;7.95;;
24761;SDS011;12865;51.934;10.330;2022-08-25T14:08:32;16.35;;;8.15;;
24761;SDS011;12865;51.934;10.330;2022-08-25T14:14:38;11.52;;;7.47;;
24761;SDS011;12865;51.934;10.330;2022-08-25T14:17:24;13.63;;;8.07;;
24761;SDS011;12865;51.934;10.330;2022-08-25T14:20:17;11.85;;;7.40;;
24761;SDS011;12865;51.934;10.330;2022-08-25T14:23:08;10.88;;;6.95;;
24761;SDS011;12865;51.934;10.330;2022-08-25T14:25:59;13.52;;;7.53;;
24761;SDS011;12865;51.934;10.330;2022-08-25T14:28:44;14.63;;;7.53;;
24761;SDS011;12865;51.934;10.330;2022-08-25T14:31:31;13.93;;;7.70;;
24761;SDS011;12865;51.934;10.330;2022-08-25T14:34:21;12.55;;;8.48;;
24761;SDS011;12865;51.934;10.330;2022-08-25T14:37:14;14.65;;;7.88;;
24761;SDS011;12865;51.934;10.330;2022-08-25T14:40:02;12.63;;;7.82;;
24761;SDS011;12865;51.934;10.330;2022-08-25T14:42:48;13.35;;;8.00;;
24761;SDS011;12865;51.934;10.330;2022-08-25T14:45:35;15.80;;;7.68;;
24761;SDS011;12865;51.934;10.330;2022-08-25T14:48:24;15.30;;;7.75;;
24761;SDS011;12865;51.934;10.330;2022-08-25T14:51:12;10.00;;;7.03;;
24761;SDS011;12865;51.934;10.330;2022-08-25T14:54:04;11.30;;;7.80;;
24761;SDS011;12865;51.934;10.330;2022-08-25T14:56:51;10.18;;;7.35;;
24761;SDS011;12865;51.934;10.330;2022-08-25T14:59:38;16.20;;;7.47;;
24761;SDS011;12865;51.934;10.330;2022-08-25T15:02:24;11.20;;;7.60;;
24761;SDS011;12865;51.934;10.330;2022-08-25T15:05:09;15.20;;;7.47;;
24761;SDS011;12865;51.934;10.330;2022-08-25T15:07:59;13.18;;;7.53;;
24761;SDS011;12865;51.934;10.330;2022-08-25T15:11:03;13.40;;;7.45;;
24761;SDS011;12865;51.934;10.330;2022-08-25T15:13:49;14.05;;;7.45;;
24761;SDS011;12865;51.934;10.330;2022-08-25T15:16:36;13.55;;;8.35;;
24761;SDS011;12865;51.934;10.330;2022-08-25T15:22:11;12.43;;;7.93;;
24761;SDS011;12865;51.934;10.330;2022-08-25T15:24:56;15.50;;;7.88;;
24761;SDS011;12865;51.934;10.330;2022-08-25T15:27:42;19.92;;;8.18;;
24761;SDS011;12865;51.934;10.330;2022-08-25T15:30:28;16.63;;;7.97;;
24761;SDS011;12865;51.934;10.330;2022-08-25T15:33:14;15.77;;;7.38;;
24761;SDS011;12865;51.934;10.330;2022-08-25T15:36:01;15.27;;;7.63;;
24761;SDS011;12865;51.934;10.330;2022-08-25T15:38:46;15.50;;;7.45;;
24761;SDS011;12865;51.934;10.330;2022-08-25T15:41:33;13.13;;;7.35;;
24761;SDS011;12865;51.934;10.330;2022-08-25T15:44:19;17.35;;;7.75;;
24761;SDS011;12865;51.934;10.330;2022-08-25T15:47:06;14.23;;;7.13;;
24761;SDS011;12865;51.934;10.330;2022-08-25T15:49:57;14.90;;;7.65;;
24761;SDS011;12865;51.934;10.330;2022-08-25T15:52:51;12.38;;;7.13;;
24761;SDS011;12865;51.934;10.330;2022-08-25T15:55:38;15.52;;;7.65;;
24761;SDS011;12865;51.934;10.330;2022-08-25T15:58:24;10.65;;;7.07;;
24761;SDS011;12865;51.934;10.330;2022-08-25T16:01:13;11.95;;;7.03;;
24761;SDS011;12865;51.934;10.330;2022-08-25T16:04:00;16.10;;;7.13;;
24761;SDS011;12865;51.934;10.330;2022-08-25T16:06:46;14.50;;;7.60;;
24761;SDS011;12865;51.934;10.330;2022-08-25T16:09:32;12.43;;;7.32;;
24761;SDS011;12865;51.934;10.330;2022-08-25T16:12:19;15.00;;;7.55;;
24761;SDS011;12865;51.934;10.330;2022-08-25T16:15:05;15.65;;;7.50;;
24761;SDS011;12865;51.934;10.330;2022-08-25T16:17:51;15.30;;;7.97;;
24761;SDS011;12865;51.934;10.330;2022-08-25T16:20:37;13.23;;;7.50;;
24761;SDS011;12865;51.934;10.330;2022-08-25T16:23:28;18.55;;;8.20;;
24761;SDS011;12865;51.934;10.330;2022-08-25T16:26:14;14.23;;;7.95;;
24761;SDS011;12865;51.934;10.330;2022-08-25T16:29:01;13.73;;;7.85;;
24761;SDS011;12865;51.934;10.330;2022-08-25T16:31:48;15.13;;;8.10;;
24761;SDS011;12865;51.934;10.330;2022-08-25T16:34:34;13.20;;;7.68;;
24761;SDS011;12865;51.934;10.330;2022-08-25T16:37:19;16.95;;;7.70;;
24761;SDS011;12865;51.934;10.330;2022-08-25T16:40:06;16.67;;;7.50;;
24761;SDS011;12865;51.934;10.330;2022-08-25T16:42:52;15.55;;;7.88;;
24761;SDS011;12865;51.934;10.330;2022-08-25T16:45:39;15.80;;;7.35;;
24761;SDS011;12865;51.934;10.330;2022-08-25T16:48:24;16.15;;;7.70;;
24761;SDS011;12865;51.934;10.330;2022-08-25T16:51:11;13.05;;;7.15;;
24761;SDS011;12865;51.934;10.330;2022-08-25T16:57:03;13.25;;;7.60;;
24761;SDS011;12865;51.934;10.330;2022-08-25T16:59:49;15.20;;;7.32;;
24761;SDS011;12865;51.934;10.330;2022-08-25T17:02:34;16.08;;;7.28;;
24761;SDS011;12865;51.934;10.330;2022-08-25T17:05:20;17.20;;;7.72;;
24761;SDS011;12865;51.934;10.330;2022-08-25T17:08:06;11.48;;;7.03;;
24761;SDS011;12865;51.934;10.330;2022-08-25T17:11:12;11.35;;;7.05;;
24761;SDS011;12865;51.934;10.330;2022-08-25T17:14:00;20.55;;;6.57;;
24761;SDS011;12865;51.934;10.330;2022-08-25T17:16:48;18.23;;;7.38;;
24761;SDS011;12865;51.934;10.330;2022-08-25T17:19:35;15.27;;;8.20;;
24761;SDS011;12865;51.934;10.330;2022-08-25T17:22:21;18.17;;;7.68;;
24761;SDS011;12865;51.934;10.330;2022-08-25T17:25:07;15.95;;;7.47;;
24761;SDS011;12865;51.934;10.330;2022-08-25T17:27:52;16.08;;;7.45;;
24761;SDS011;12865;51.934;10.330;2022-08-25T17:30:38;19.50;;;7.68;;
24761;SDS011;12865;51.934;10.330;2022-08-25T17:33:25;15.90;;;7.68;;
24761;SDS011;12865;51.934;10.330;2022-08-25T17:36:11;12.30;;;6.90;;
24761;SDS011;12865;51.934;10.330;2022-08-25T17:38:57;22.38;;;8.20;;
24761;SDS011;12865;51.934;10.330;2022-08-25T17:41:43;19.00;;;6.85;;
24761;SDS011;12865;51.934;10.330;2022-08-25T17:44:29;14.98;;;6.93;;
24761;SDS011;12865;51.934;10.330;2022-08-25T17:47:15;15.38;;;6.85;;
24761;SDS011;12865;51.934;10.330;2022-08-25T17:50:00;17.00;;;7.55;;
24761;SDS011;12865;51.934;10.330;2022-08-25T17:52:47;15.32;;;7.30;;
24761;SDS011;12865;51.934;10.330;2022-08-25T17:55:32;16.30;;;7.30;;
24761;SDS011;12865;51.934;10.330;2022-08-25T17:58:18;18.50;;;7.80;;
24761;SDS011;12865;51.934;10.330;2022-08-25T18:01:04;16.00;;;7.38;;
24761;SDS011;12865;51.934;10.330;2022-08-25T18:03:50;21.23;;;6.88;;
24761;SDS011;12865;51.934;10.330;2022-08-25T18:06:36;20.00;;;7.07;;
24761;SDS011;12865;51.934;10.330;2022-08-25T18:09:22;17.92;;;7.47;;
24761;SDS011;12865;51.934;10.330;2022-08-25T18:12:08;19.58;;;8.10;;
24761;SDS011;12865;51.934;10.330;2022-08-25T18:14:54;16.63;;;7.13;;
24761;SDS011;12865;51.934;10.330;2022-08-25T18:17:40;19.45;;;7.85;;
24761;SDS011;12865;51.934;10.330;2022-08-25T18:20:26;23.77;;;8.07;;
24761;SDS011;12865;51.934;10.330;2022-08-25T18:23:12;14.75;;;7.30;;
24761;SDS011;12865;51.934;10.330;2022-08-25T18:25:58;15.10;;;7.50;;
24761;SDS011;12865;51.934;10.330;2022-08-25T18:28:44;23.45;;;8.30;;
24761;SDS011;12865;51.934;10.330;2022-08-25T18:31:30;19.52;;;8.20;;